Eva-320 — ES2338 — position and weather

sailwx.info

Track history (hours):
 
Tides and Currents Weather Stations Pressure Air Temp Water Temp Dewpoint Dewpoint Depression Visibility Wind Speed Wind Dir Waves Ship Positions

Eva-320

Last reported at 2017-Sep-04 05:47 UTC. Time now 2017-Sep-26 04:07 UTC.
Position N 58°58' E 023°31'.
Warning: this ship's position is 21 days out of date.

Length 20 m; draft 1 m.

Type: Other ship. MMSI: 276197000.

Date/timePositionNaut miles runAvg speedWind from/ knotsBaromVisibWave heightAir tempDewpointWater temp
2017-Sep-04 05:47N 58°58' E 023°31'0 0.0
2017-Sep-04 03:53N 58°58' E 023°31'0 0.0
2017-Sep-04 02:41N 58°58' E 023°31'0 0.0
2017-Sep-04 02:29N 58°58' E 023°31'  
2017-Aug-31 09:13N 58°41' E 023°10'0 0.2
2017-Aug-31 08:38N 58°41' E 023°10'0 1.5
2017-Aug-31 08:25N 58°41' E 023°09'0 0.1
2017-Aug-31 07:55N 58°41' E 023°09'0 0.4
2017-Aug-31 07:20N 58°41' E 023°10'0 0.8
2017-Aug-31 06:54N 58°41' E 023°10'1 0.8
2017-Aug-31 06:06N 58°41' E 023°09'0 0.3
2017-Aug-31 05:48N 58°41' E 023°09'5 0.1
2017-Aug-29 06:54N 58°45' E 023°13'0 0.2
2017-Aug-29 06:31N 58°45' E 023°13'9 6.7
2017-Aug-29 05:14N 58°52' E 023°03'0 0.1
2017-Aug-29 05:00N 58°52' E 023°03'  
Track history (hours):
 
Tides and Currents Weather Stations Pressure Air Temp Water Temp Dewpoint Dewpoint Depression Visibility Wind Speed Wind Dir Waves Ship Positions

Eva-320

Last reported at 2017-Sep-04 05:47 UTC. Time now 2017-Sep-26 04:07 UTC.
Position N 58°58' E 023°31'.
Warning: this ship's position is 21 days out of date.

Length 20 m; draft 1 m.

Type: Other ship. MMSI: 276197000.

Date/timePositionNaut miles runAvg speedWind from/ knotsBaromVisibWave heightAir tempDewpointWater temp
2017-Sep-04 05:47N 58°58' E 023°31'0 0.0
2017-Sep-04 03:53N 58°58' E 023°31'0 0.0
2017-Sep-04 02:41N 58°58' E 023°31'0 0.0
2017-Sep-04 02:29N 58°58' E 023°31'  
2017-Aug-31 09:13N 58°41' E 023°10'0 0.2
2017-Aug-31 08:38N 58°41' E 023°10'0 1.5
2017-Aug-31 08:25N 58°41' E 023°09'0 0.1
2017-Aug-31 07:55N 58°41' E 023°09'0 0.4
2017-Aug-31 07:20N 58°41' E 023°10'0 0.8
2017-Aug-31 06:54N 58°41' E 023°10'1 0.8
2017-Aug-31 06:06N 58°41' E 023°09'0 0.3
2017-Aug-31 05:48N 58°41' E 023°09'5 0.1
2017-Aug-29 06:54N 58°45' E 023°13'0 0.2
2017-Aug-29 06:31N 58°45' E 023°13'9 6.7
2017-Aug-29 05:14N 58°52' E 023°03'0 0.1
2017-Aug-29 05:00N 58°52' E 023°03'  

Dump ship's entire track history